sensor_id;sensor_type;location;lat;lon;timestamp;pressure;altitude;pressure_sealevel;temperature;humidity
7586;BME280;12459;42.646;23.292;2023-08-08T00:00:13;93493.31;;;19.48;100.00
7586;BME280;12459;42.646;23.292;2023-08-08T00:15:14;93584.06;;;19.08;100.00
7586;BME280;12459;42.646;23.292;2023-08-08T00:30:16;93200.31;;;15.87;100.00
7586;BME280;12459;42.646;23.292;2023-08-08T00:45:18;93554.56;;;18.28;96.82
7586;BME280;12459;42.646;23.292;2023-08-08T01:00:20;93563.91;;;18.09;96.37
7586;BME280;12459;42.646;23.292;2023-08-08T01:15:22;93068.91;;;14.60;95.36
7586;BME280;12459;42.646;23.292;2023-08-08T01:30:25;93232.69;;;15.78;94.98
7586;BME280;12459;42.646;23.292;2023-08-08T01:45:27;93546.84;;;17.32;93.21
7586;BME280;12459;42.646;23.292;2023-08-08T02:00:28;93414.91;;;16.21;95.21
7586;BME280;12459;42.646;23.292;2023-08-08T02:15:31;93441.66;;;16.81;93.38
7586;BME280;12459;42.646;23.292;2023-08-08T02:30:32;93439.06;;;16.46;96.10
7586;BME280;12459;42.646;23.292;2023-08-08T02:45:34;93737.75;;;18.02;95.19
7586;BME280;12459;42.646;23.292;2023-08-08T03:00:36;93705.06;;;17.43;96.08
7586;BME280;12459;42.646;23.292;2023-08-08T03:15:38;93392.81;;;15.91;93.80
7586;BME280;12459;42.646;23.292;2023-08-08T03:30:39;93752.44;;;18.23;94.20
7586;BME280;12459;42.646;23.292;2023-08-08T03:45:41;93538.34;;;16.37;94.74
7586;BME280;12459;42.646;23.292;2023-08-08T04:00:43;93739.41;;;18.48;91.50
7586;BME280;12459;42.646;23.292;2023-08-08T04:15:48;93480.38;;;16.47;89.75
7586;BME280;12459;42.646;23.292;2023-08-08T04:30:49;93676.41;;;17.86;87.81
7586;BME280;12459;42.646;23.292;2023-08-08T04:45:51;93333.47;;;15.44;88.69
7586;BME280;12459;42.646;23.292;2023-08-08T05:00:53;93696.03;;;17.99;86.96
7586;BME280;12459;42.646;23.292;2023-08-08T05:15:56;93848.66;;;18.62;88.98
7586;BME280;12459;42.646;23.292;2023-08-08T05:30:58;93575.53;;;16.89;87.58
7586;BME280;12459;42.646;23.292;2023-08-08T05:46:00;93881.44;;;19.99;83.97
7586;BME280;12459;42.646;23.292;2023-08-08T06:01:02;93910.38;;;19.20;84.57
7586;BME280;12459;42.646;23.292;2023-08-08T06:16:07;93779.44;;;18.26;84.69
7586;BME280;12459;42.646;23.292;2023-08-08T06:31:09;93802.44;;;19.20;81.70
7586;BME280;12459;42.646;23.292;2023-08-08T06:46:11;93828.56;;;19.27;73.53
7586;BME280;12459;42.646;23.292;2023-08-08T07:01:13;93795.47;;;19.74;70.96
7586;BME280;12459;42.646;23.292;2023-08-08T07:16:15;93816.16;;;18.98;69.48
7586;BME280;12459;42.646;23.292;2023-08-08T07:31:17;93754.72;;;19.46;68.62
7586;BME280;12459;42.646;23.292;2023-08-08T07:46:19;93820.00;;;20.25;67.45
7586;BME280;12459;42.646;23.292;2023-08-08T08:01:21;93891.97;;;21.18;67.04
7586;BME280;12459;42.646;23.292;2023-08-08T08:16:23;93817.91;;;20.62;64.68
7586;BME280;12459;42.646;23.292;2023-08-08T08:31:25;93891.66;;;21.87;63.65
7586;BME280;12459;42.646;23.292;2023-08-08T08:46:28;93879.63;;;21.55;61.72
7586;BME280;12459;42.646;23.292;2023-08-08T09:01:30;93822.09;;;21.29;61.94
7586;BME280;12459;42.646;23.292;2023-08-08T09:16:32;93681.84;;;20.68;62.03
7586;BME280;12459;42.646;23.292;2023-08-08T09:31:35;93897.09;;;22.55;58.46
7586;BME280;12459;42.646;23.292;2023-08-08T09:46:37;93676.97;;;20.72;59.32
7586;BME280;12459;42.646;23.292;2023-08-08T10:01:40;93827.69;;;22.18;58.82
7586;BME280;12459;42.646;23.292;2023-08-08T10:16:44;93918.25;;;23.05;56.56
7586;BME280;12459;42.646;23.292;2023-08-08T10:31:52;93913.81;;;23.42;55.20
7586;BME280;12459;42.646;23.292;2023-08-08T10:46:54;93882.03;;;24.32;55.65
7586;BME280;12459;42.646;23.292;2023-08-08T11:02:01;93776.28;;;24.19;53.71
7586;BME280;12459;42.646;23.292;2023-08-08T11:17:03;93839.94;;;24.66;52.14
7586;BME280;12459;42.646;23.292;2023-08-08T11:32:05;93834.50;;;25.03;50.29
7586;BME280;12459;42.646;23.292;2023-08-08T11:47:08;93709.81;;;24.56;50.83
7586;BME280;12459;42.646;23.292;2023-08-08T12:02:10;93823.50;;;24.98;50.90
7586;BME280;12459;42.646;23.292;2023-08-08T12:17:12;93745.03;;;24.32;49.98
7586;BME280;12459;42.646;23.292;2023-08-08T12:32:14;93801.91;;;24.79;49.81
7586;BME280;12459;42.646;23.292;2023-08-08T12:47:15;93798.31;;;24.62;51.88
7586;BME280;12459;42.646;23.292;2023-08-08T13:02:17;93816.13;;;24.83;51.05
7586;BME280;12459;42.646;23.292;2023-08-08T13:17:19;93736.00;;;23.94;49.56
7586;BME280;12459;42.646;23.292;2023-08-08T13:32:21;93753.78;;;24.04;48.17
7586;BME280;12459;42.646;23.292;2023-08-08T13:47:22;93812.03;;;24.31;50.57
7586;BME280;12459;42.646;23.292;2023-08-08T14:02:24;93807.19;;;23.94;51.20
7586;BME280;12459;42.646;23.292;2023-08-08T14:17:26;93765.06;;;23.40;52.05
7586;BME280;12459;42.646;23.292;2023-08-08T14:32:28;93727.00;;;23.16;51.43
7586;BME280;12459;42.646;23.292;2023-08-08T14:47:30;93701.72;;;22.80;51.43
7586;BME280;12459;42.646;23.292;2023-08-08T15:02:32;93760.34;;;23.40;52.94
7586;BME280;12459;42.646;23.292;2023-08-08T15:17:33;93704.75;;;22.68;52.57
7586;BME280;12459;42.646;23.292;2023-08-08T15:32:37;93693.84;;;22.68;53.49
7586;BME280;12459;42.646;23.292;2023-08-08T15:47:39;93685.81;;;22.44;53.12
7586;BME280;12459;42.646;23.292;2023-08-08T16:02:41;93831.88;;;23.13;54.26
7586;BME280;12459;42.646;23.292;2023-08-08T16:17:44;93704.38;;;22.19;54.25
7586;BME280;12459;42.646;23.292;2023-08-08T16:32:45;93803.31;;;22.29;54.61
7586;BME280;12459;42.646;23.292;2023-08-08T16:47:47;93865.53;;;22.40;54.30
7586;BME280;12459;42.646;23.292;2023-08-08T17:02:49;93930.88;;;22.14;56.51
7586;BME280;12459;42.646;23.292;2023-08-08T17:17:51;93899.00;;;21.96;55.50
7586;BME280;12459;42.646;23.292;2023-08-08T17:32:52;93807.28;;;20.97;56.67
7586;BME280;12459;42.646;23.292;2023-08-08T17:47:54;93395.19;;;17.68;58.97
7586;BME280;12459;42.646;23.292;2023-08-08T18:02:56;93943.16;;;20.81;61.14
7586;BME280;12459;42.646;23.292;2023-08-08T18:17:59;93873.50;;;20.37;60.65
7586;BME280;12459;42.646;23.292;2023-08-08T18:33:02;93953.06;;;20.42;62.11
7586;BME280;12459;42.646;23.292;2023-08-08T18:48:05;93855.31;;;19.74;63.71
7586;BME280;12459;42.646;23.292;2023-08-08T19:03:07;93908.81;;;19.86;65.96
7586;BME280;12459;42.646;23.292;2023-08-08T19:18:09;93999.06;;;20.39;66.82
7586;BME280;12459;42.646;23.292;2023-08-08T19:33:10;93993.91;;;20.05;68.97
7586;BME280;12459;42.646;23.292;2023-08-08T19:48:12;93824.50;;;18.64;70.37
7586;BME280;12459;42.646;23.292;2023-08-08T20:03:14;94016.97;;;19.24;73.54
7586;BME280;12459;42.646;23.292;2023-08-08T20:18:17;93923.09;;;18.83;73.03
7586;BME280;12459;42.646;23.292;2023-08-08T20:33:19;94005.41;;;19.41;73.32
7586;BME280;12459;42.646;23.292;2023-08-08T20:48:21;93751.31;;;17.27;73.61
7586;BME280;12459;42.646;23.292;2023-08-08T21:03:23;93717.19;;;17.30;74.26
7586;BME280;12459;42.646;23.292;2023-08-08T21:18:41;93918.03;;;18.63;75.62
7586;BME280;12459;42.646;23.292;2023-08-08T21:33:43;93927.09;;;18.16;79.00
7586;BME280;12459;42.646;23.292;2023-08-08T21:48:45;93953.47;;;18.37;79.53
7586;BME280;12459;42.646;23.292;2023-08-08T22:03:47;93864.75;;;17.72;79.98
7586;BME280;12459;42.646;23.292;2023-08-08T22:18:49;93997.63;;;18.16;84.04
7586;BME280;12459;42.646;23.292;2023-08-08T22:33:51;93730.72;;;16.86;81.73
7586;BME280;12459;42.646;23.292;2023-08-08T22:48:52;93952.28;;;17.95;84.26
7586;BME280;12459;42.646;23.292;2023-08-08T23:03:54;93843.53;;;16.89;85.81
7586;BME280;12459;42.646;23.292;2023-08-08T23:18:56;93772.38;;;16.16;88.72
7586;BME280;12459;42.646;23.292;2023-08-08T23:33:58;93974.75;;;17.22;91.86
7586;BME280;12459;42.646;23.292;2023-08-08T23:49:01;93969.53;;;17.28;90.94
